createdAt,value
2017-09-14T00:01:06.602Z,3.13
2017-09-14T00:03:34.186Z,3.00
2017-09-14T00:06:01.771Z,2.97
2017-09-14T00:08:30.108Z,3.00
2017-09-14T00:10:57.955Z,3.23
2017-09-14T00:13:25.534Z,3.10
2017-09-14T00:15:53.112Z,2.70
2017-09-14T00:18:20.695Z,2.50
2017-09-14T00:20:49.037Z,3.10
2017-09-14T00:23:16.618Z,2.83
2017-09-14T00:25:44.363Z,2.90
2017-09-14T00:28:11.975Z,3.00
2017-09-14T00:30:39.530Z,3.27
2017-09-14T00:33:07.869Z,3.53
2017-09-14T00:35:35.533Z,3.43
2017-09-14T00:38:03.184Z,3.10
2017-09-14T00:40:30.746Z,3.03
2017-09-14T00:42:58.344Z,2.80
2017-09-14T00:45:26.764Z,3.10
2017-09-14T00:47:54.347Z,3.07
2017-09-14T00:50:21.910Z,3.77
2017-09-14T00:52:49.487Z,4.43
2017-09-14T00:55:17.073Z,3.30
2017-09-14T00:57:44.617Z,3.50
2017-09-14T01:00:12.174Z,3.70
2017-09-14T01:02:39.772Z,3.50
2017-09-14T01:05:07.366Z,4.00
2017-09-14T01:07:34.942Z,2.77
2017-09-14T01:10:02.505Z,2.97
2017-09-14T01:12:30.078Z,4.10
2017-09-14T01:14:57.651Z,3.67
2017-09-14T01:17:25.281Z,4.80
2017-09-14T01:19:53.614Z,3.90
2017-09-14T01:22:21.181Z,3.53
2017-09-14T01:24:48.730Z,3.47
2017-09-14T01:27:17.097Z,3.40
2017-09-14T01:29:45.459Z,3.60
2017-09-14T01:32:13.001Z,3.87
2017-09-14T01:34:40.619Z,3.93
2017-09-14T01:37:08.945Z,3.77
2017-09-14T01:39:36.535Z,3.17
2017-09-14T01:42:04.114Z,3.87
2017-09-14T01:44:31.772Z,3.27
2017-09-14T01:47:00.193Z,3.30
2017-09-14T01:49:30.645Z,4.07
2017-09-14T01:51:58.226Z,3.20
2017-09-14T01:54:25.806Z,3.40
2017-09-14T01:56:54.146Z,4.10
2017-09-14T01:59:21.754Z,4.10
2017-09-14T02:01:49.327Z,3.90
2017-09-14T02:04:17.082Z,3.40
2017-09-14T02:06:44.651Z,3.80
2017-09-14T02:09:12.223Z,3.60
2017-09-14T02:11:40.546Z,3.93
2017-09-14T02:14:08.142Z,4.53
2017-09-14T02:16:35.706Z,4.53
2017-09-14T02:19:03.276Z,4.30
2017-09-14T02:21:30.898Z,4.40
2017-09-14T02:23:58.461Z,4.40
2017-09-14T02:26:26.046Z,5.07
2017-09-14T02:28:53.626Z,4.90
2017-09-14T02:31:21.233Z,4.50
2017-09-14T02:33:48.790Z,4.17
2017-09-14T02:36:16.353Z,4.23
2017-09-14T02:38:43.946Z,5.10
2017-09-14T02:41:12.278Z,4.37
2017-09-14T02:43:39.854Z,4.30
2017-09-14T02:46:07.418Z,4.90
2017-09-14T02:48:35.003Z,4.50
2017-09-14T02:51:03.344Z,5.33
2017-09-14T02:53:30.909Z,4.73
2017-09-14T02:55:58.534Z,4.83
2017-09-14T02:58:26.132Z,5.10
2017-09-14T03:00:53.726Z,5.00
2017-09-14T03:03:22.071Z,4.63
2017-09-14T03:05:49.641Z,4.33
2017-09-14T03:08:17.214Z,5.03
2017-09-14T03:10:45.578Z,4.83
2017-09-14T03:13:13.158Z,5.37
2017-09-14T03:15:41.638Z,5.00
2017-09-14T03:18:09.969Z,4.73
2017-09-14T03:20:37.538Z,5.27
2017-09-14T03:23:05.144Z,4.50
2017-09-14T03:25:33.502Z,5.37
2017-09-14T03:28:01.096Z,4.70
2017-09-14T03:30:29.434Z,5.30
2017-09-14T03:32:57.010Z,5.10
2017-09-14T03:35:24.611Z,5.27
2017-09-14T03:37:52.226Z,5.80
2017-09-14T03:40:19.834Z,5.63
2017-09-14T03:42:47.398Z,5.30
2017-09-14T03:45:15.038Z,6.37
2017-09-14T03:47:43.380Z,5.57
2017-09-14T03:50:11.059Z,5.60
2017-09-14T03:52:38.618Z,5.60
2017-09-14T03:55:06.214Z,5.20
2017-09-14T03:57:34.533Z,4.90
2017-09-14T04:00:02.126Z,6.43
2017-09-14T04:02:29.706Z,5.67
2017-09-14T04:04:58.049Z,6.00
2017-09-14T04:07:25.642Z,5.47
2017-09-14T04:09:53.996Z,6.13
2017-09-14T04:12:21.561Z,5.50
2017-09-14T04:14:49.162Z,5.90
2017-09-14T04:17:16.769Z,6.00
2017-09-14T04:19:44.458Z,5.60
2017-09-14T04:22:12.780Z,5.07
2017-09-14T04:24:40.337Z,5.50
2017-09-14T04:27:07.956Z,5.00
2017-09-14T04:29:35.528Z,6.63
2017-09-14T04:32:03.869Z,5.27
2017-09-14T04:34:31.489Z,6.07
2017-09-14T04:36:59.087Z,5.00
2017-09-14T04:39:26.650Z,5.63
2017-09-14T04:41:54.221Z,5.83
2017-09-14T04:44:21.806Z,5.47
2017-09-14T04:46:50.159Z,4.33
2017-09-14T04:49:17.778Z,4.80
2017-09-14T04:51:45.339Z,4.70
2017-09-14T04:54:12.925Z,4.90
2017-09-14T04:56:40.502Z,5.13
2017-09-14T04:59:08.088Z,4.33
2017-09-14T05:01:36.510Z,4.10
2017-09-14T05:04:04.121Z,4.67
2017-09-14T05:06:31.671Z,3.80
2017-09-14T05:08:59.242Z,4.80
2017-09-14T05:11:26.840Z,4.07
2017-09-14T05:13:54.410Z,5.63
2017-09-14T05:16:21.997Z,4.97
2017-09-14T05:18:49.574Z,3.93
2017-09-14T05:21:17.347Z,4.40
2017-09-14T05:23:44.905Z,4.10
2017-09-14T05:26:12.475Z,4.47
2017-09-14T05:28:40.042Z,3.83
2017-09-14T05:31:07.738Z,3.90
2017-09-14T05:33:35.365Z,4.20
2017-09-14T05:36:02.936Z,4.23
2017-09-14T05:38:31.299Z,4.97
2017-09-14T05:40:58.854Z,4.43
2017-09-14T05:43:26.444Z,4.33
2017-09-14T05:45:54.040Z,3.90
2017-09-14T05:48:21.631Z,3.87
2017-09-14T05:50:49.268Z,4.63
2017-09-14T05:53:16.886Z,4.27
2017-09-14T05:55:45.285Z,4.00
2017-09-14T05:58:12.862Z,4.70
2017-09-14T06:00:40.455Z,4.50
2017-09-14T06:03:08.031Z,4.30
2017-09-14T06:05:36.071Z,3.60
2017-09-14T06:08:03.639Z,4.60
2017-09-14T06:10:31.251Z,4.10
2017-09-14T06:12:58.822Z,4.60
2017-09-14T06:15:26.415Z,4.50
2017-09-14T06:17:54.006Z,4.17
2017-09-14T06:20:21.588Z,5.90
2017-09-14T06:22:49.941Z,4.47
2017-09-14T06:25:17.567Z,4.63
2017-09-14T06:27:45.903Z,4.57
2017-09-14T06:30:14.250Z,5.00
2017-09-14T06:32:41.827Z,4.00
2017-09-14T06:35:09.414Z,4.80
2017-09-14T06:37:37.737Z,4.70
2017-09-14T06:40:05.314Z,5.03
2017-09-14T06:42:32.875Z,4.43
2017-09-14T06:45:00.465Z,5.10
2017-09-14T06:47:29.099Z,4.40
2017-09-14T06:49:56.702Z,5.03
2017-09-14T06:52:25.058Z,4.80
2017-09-14T06:54:52.662Z,4.93
2017-09-14T06:57:20.990Z,5.07
2017-09-14T06:59:48.607Z,5.10
2017-09-14T07:02:16.162Z,4.40
2017-09-14T07:04:44.498Z,4.30
2017-09-14T07:07:12.118Z,4.40
2017-09-14T07:09:39.707Z,5.10
2017-09-14T07:12:07.298Z,4.47
2017-09-14T07:14:34.916Z,4.50
2017-09-14T07:17:03.250Z,5.40
2017-09-14T07:19:31.626Z,5.10
2017-09-14T07:21:59.214Z,4.70
2017-09-14T07:24:26.776Z,4.27
2017-09-14T07:26:54.335Z,4.10
2017-09-14T07:29:21.918Z,4.07
2017-09-14T07:31:49.498Z,4.80
2017-09-14T07:34:17.089Z,4.50
2017-09-14T07:36:44.672Z,4.30
2017-09-14T07:39:13.041Z,3.93
2017-09-14T07:41:41.383Z,4.63
2017-09-14T07:44:08.959Z,4.40
2017-09-14T07:46:36.542Z,3.73
2017-09-14T07:49:04.926Z,3.80
2017-09-14T07:51:33.304Z,4.20
2017-09-14T07:54:01.644Z,3.60
2017-09-14T07:56:29.230Z,3.80
2017-09-14T07:58:56.794Z,3.10
2017-09-14T08:01:25.170Z,3.00
2017-09-14T08:03:52.730Z,2.73
2017-09-14T08:06:20.298Z,2.47
2017-09-14T08:08:48.643Z,2.80
2017-09-14T08:11:16.222Z,3.17
2017-09-14T08:13:43.773Z,3.10
2017-09-14T08:16:11.367Z,2.83
2017-09-14T08:18:39.717Z,2.20
2017-09-14T08:21:07.314Z,2.90
2017-09-14T08:23:35.649Z,2.40
2017-09-14T08:26:03.235Z,2.70
2017-09-14T08:28:30.822Z,2.37
2017-09-14T08:30:59.151Z,2.50
2017-09-14T08:33:26.733Z,2.57
2017-09-14T08:35:55.230Z,3.80
2017-09-14T08:38:23.604Z,4.27
2017-09-14T08:40:51.156Z,2.17
2017-09-14T08:43:18.751Z,1.90
2017-09-14T08:45:46.328Z,2.00
2017-09-14T08:48:13.885Z,2.93
2017-09-14T08:50:41.507Z,2.37
2017-09-14T08:53:09.842Z,2.90
2017-09-14T08:55:37.417Z,2.20
2017-09-14T08:58:05.024Z,2.23
2017-09-14T09:00:33.363Z,2.43
2017-09-14T09:03:00.952Z,2.80
2017-09-14T09:05:29.275Z,2.50
2017-09-14T09:07:56.961Z,2.00
2017-09-14T09:10:24.590Z,2.40
2017-09-14T09:12:52.479Z,3.20
2017-09-14T09:15:20.047Z,3.07
2017-09-14T09:17:47.658Z,3.20
2017-09-14T09:20:15.989Z,4.53
2017-09-14T09:22:43.554Z,4.60
2017-09-14T09:25:11.946Z,3.40
2017-09-14T09:27:39.538Z,4.40
2017-09-14T09:30:07.887Z,3.90
2017-09-14T09:32:35.474Z,4.30
2017-09-14T09:35:03.826Z,3.90
2017-09-14T09:37:31.404Z,4.50
2017-09-14T09:39:58.982Z,4.50
2017-09-14T09:42:26.569Z,4.03
2017-09-14T09:44:54.152Z,3.40
2017-09-14T09:47:21.722Z,1.57
2017-09-14T09:49:49.290Z,1.30
2017-09-14T09:52:16.899Z,1.57
2017-09-14T09:54:45.370Z,2.00
2017-09-14T09:57:13.678Z,2.60
2017-09-14T09:59:41.268Z,2.57
2017-09-14T10:02:08.857Z,2.63
2017-09-14T10:04:37.195Z,3.07
2017-09-14T10:07:04.774Z,3.33
2017-09-14T10:09:32.376Z,3.37
2017-09-14T10:11:59.947Z,3.13
2017-09-14T10:14:27.514Z,2.90
2017-09-14T10:16:55.079Z,3.07
2017-09-14T10:19:22.688Z,2.67
2017-09-14T10:21:50.256Z,2.50
2017-09-14T10:24:17.819Z,1.90
2017-09-14T10:26:46.143Z,2.07
2017-09-14T10:29:13.727Z,2.07
2017-09-14T10:31:41.299Z,2.40
2017-09-14T10:34:08.880Z,2.10
2017-09-14T10:36:37.235Z,2.23
2017-09-14T10:39:04.811Z,2.80
2017-09-14T10:41:32.386Z,2.40
2017-09-14T10:44:00.735Z,2.13
2017-09-14T10:46:28.363Z,1.93
2017-09-14T10:48:55.993Z,2.17
2017-09-14T10:51:24.365Z,1.57
2017-09-14T10:53:51.922Z,2.00
2017-09-14T10:56:20.376Z,1.63
2017-09-14T10:58:47.968Z,1.70
2017-09-14T11:01:16.303Z,1.60
2017-09-14T11:03:43.879Z,1.53
2017-09-14T11:06:11.483Z,2.20
2017-09-14T11:08:39.088Z,2.10
2017-09-14T11:11:06.642Z,2.43
2017-09-14T11:13:34.314Z,2.20
2017-09-14T11:16:01.903Z,2.07
2017-09-14T11:18:29.478Z,2.50
2017-09-14T11:20:57.842Z,2.40
2017-09-14T11:23:25.395Z,2.60
2017-09-14T11:25:52.958Z,2.20
2017-09-14T11:28:20.531Z,2.17
2017-09-14T11:30:48.967Z,2.80
2017-09-14T11:33:16.558Z,2.73
2017-09-14T11:35:44.119Z,2.53
2017-09-14T11:38:11.698Z,2.33
2017-09-14T11:40:40.200Z,4.33
2017-09-14T11:43:08.527Z,2.63
2017-09-14T11:45:36.124Z,2.30
2017-09-14T11:48:04.474Z,2.40
2017-09-14T11:50:32.255Z,2.40
2017-09-14T11:52:59.843Z,2.20
2017-09-14T11:55:28.195Z,2.63
2017-09-14T11:57:55.898Z,2.33
2017-09-14T12:00:23.728Z,2.70
2017-09-14T12:02:51.291Z,1.90
2017-09-14T12:05:18.862Z,1.87
2017-09-14T12:07:47.215Z,1.60
2017-09-14T12:10:14.790Z,1.67
2017-09-14T12:12:42.382Z,1.93
2017-09-14T12:15:10.004Z,1.40
2017-09-14T12:17:37.718Z,1.60
2017-09-14T12:20:05.287Z,1.90
2017-09-14T12:22:32.883Z,1.60
2017-09-14T12:25:00.565Z,1.40
2017-09-14T12:27:28.919Z,1.40
2017-09-14T12:29:56.503Z,1.50
2017-09-14T12:32:24.859Z,2.50
2017-09-14T12:34:52.475Z,1.30
2017-09-14T12:37:20.122Z,1.13
2017-09-14T12:39:48.488Z,1.20
2017-09-14T12:42:16.064Z,1.30
2017-09-14T12:44:44.403Z,1.40
2017-09-14T12:47:12.002Z,1.13
2017-09-14T12:49:40.332Z,1.20
2017-09-14T12:52:07.911Z,1.17
2017-09-14T12:54:35.524Z,1.37
2017-09-14T12:57:03.143Z,1.40
2017-09-14T12:59:30.742Z,1.90
2017-09-14T13:01:58.348Z,1.97
2017-09-14T13:04:25.955Z,1.70
2017-09-14T13:06:54.312Z,2.17
2017-09-14T13:09:22.638Z,1.90
2017-09-14T13:11:50.231Z,1.90
2017-09-14T13:14:17.828Z,2.07
2017-09-14T13:16:46.199Z,2.00
2017-09-14T13:19:13.768Z,1.87
2017-09-14T13:21:42.327Z,1.63
2017-09-14T13:24:09.899Z,2.10
2017-09-14T13:26:37.646Z,1.97
2017-09-14T13:29:06.013Z,1.80
2017-09-14T13:31:33.675Z,2.30
2017-09-14T13:34:01.267Z,2.10
2017-09-14T13:36:30.042Z,1.97
2017-09-14T13:38:58.890Z,1.93
2017-09-14T13:41:26.526Z,2.00
2017-09-14T13:43:54.846Z,2.37
2017-09-14T13:46:23.347Z,1.97
2017-09-14T13:48:50.938Z,1.93
2017-09-14T13:51:19.306Z,2.30
2017-09-14T13:53:46.895Z,2.40
2017-09-14T13:56:15.248Z,2.50
2017-09-14T13:58:43.618Z,2.67
2017-09-14T14:01:11.194Z,2.20
2017-09-14T14:03:38.839Z,2.20
2017-09-14T14:06:06.404Z,2.43
2017-09-14T14:08:34.003Z,2.43
2017-09-14T14:11:02.487Z,2.50
2017-09-14T14:13:30.066Z,2.40
2017-09-14T14:15:57.746Z,2.47
2017-09-14T14:18:25.369Z,2.37
2017-09-14T14:20:53.723Z,2.20
2017-09-14T14:23:21.275Z,2.27
2017-09-14T14:25:48.880Z,2.20
2017-09-14T14:28:16.447Z,2.27
2017-09-14T14:30:44.034Z,1.90
2017-09-14T14:33:11.618Z,2.10
2017-09-14T14:35:39.199Z,1.60
2017-09-14T14:38:07.547Z,1.80
2017-09-14T14:40:35.147Z,2.00
2017-09-14T14:43:03.496Z,2.10
2017-09-14T14:45:31.096Z,2.17
2017-09-14T14:47:59.423Z,2.00
2017-09-14T14:50:27.007Z,1.93
2017-09-14T14:52:54.598Z,2.30
2017-09-14T14:55:22.186Z,2.20
2017-09-14T14:57:49.767Z,1.30
2017-09-14T15:00:17.346Z,1.97
2017-09-14T15:02:47.910Z,1.80
2017-09-14T15:05:15.519Z,1.80
2017-09-14T15:07:43.106Z,1.70
2017-09-14T15:10:10.649Z,2.07
2017-09-14T15:12:38.231Z,2.07
2017-09-14T15:15:06.570Z,2.27
2017-09-14T15:17:34.179Z,2.17
2017-09-14T15:20:02.584Z,2.47
2017-09-14T15:22:30.164Z,2.00
2017-09-14T15:24:57.722Z,2.20
2017-09-14T15:27:25.295Z,1.63
2017-09-14T15:29:53.076Z,1.50
2017-09-14T15:32:20.660Z,1.40
2017-09-14T15:34:48.239Z,1.60
2017-09-14T15:37:21.915Z,1.47
2017-09-14T15:39:55.246Z,1.60
2017-09-14T15:42:28.450Z,1.10
2017-09-14T15:45:01.671Z,1.30
2017-09-14T15:47:29.252Z,1.10
2017-09-14T15:50:03.368Z,1.20
2017-09-14T15:52:30.927Z,1.10
2017-09-14T15:54:58.832Z,1.20
2017-09-14T15:57:27.191Z,0.97
2017-09-14T15:59:54.767Z,0.90
2017-09-14T16:02:23.162Z,0.97
2017-09-14T16:04:50.742Z,0.80
2017-09-14T16:07:18.324Z,0.90
2017-09-14T16:09:46.837Z,1.20
2017-09-14T16:12:14.414Z,1.20
2017-09-14T16:14:42.789Z,1.40
2017-09-14T16:17:11.190Z,1.20
2017-09-14T16:19:38.786Z,1.20
2017-09-14T16:22:06.360Z,1.53
2017-09-14T16:24:33.954Z,1.20
2017-09-14T16:27:02.277Z,0.90
2017-09-14T16:29:29.870Z,1.17
2017-09-14T16:31:57.470Z,1.10
2017-09-14T16:34:25.098Z,1.17
2017-09-14T16:36:53.601Z,1.40
2017-09-14T16:39:22.011Z,1.57
2017-09-14T16:41:49.595Z,1.53
2017-09-14T16:44:17.177Z,1.63
2017-09-14T16:46:44.841Z,1.70
2017-09-14T16:49:13.252Z,1.70
2017-09-14T16:51:41.604Z,1.40
2017-09-14T16:54:09.194Z,1.40
2017-09-14T16:56:37.553Z,1.40
2017-09-14T16:59:05.161Z,1.40
2017-09-14T17:01:32.744Z,1.30
2017-09-14T17:04:00.326Z,2.13
2017-09-14T17:06:27.904Z,1.30
2017-09-14T17:08:56.250Z,2.00
2017-09-14T17:11:23.838Z,1.80
2017-09-14T17:13:52.201Z,1.60
2017-09-14T17:16:20.593Z,1.40
2017-09-14T17:18:48.172Z,1.93
2017-09-14T17:21:16.591Z,2.10
2017-09-14T17:23:44.948Z,2.60
2017-09-14T17:26:12.953Z,2.03
2017-09-14T17:28:40.543Z,2.30
2017-09-14T17:31:08.119Z,3.10
2017-09-14T17:33:36.584Z,2.30
2017-09-14T17:36:04.234Z,2.93
2017-09-14T17:38:31.811Z,2.63
2017-09-14T17:41:00.120Z,2.87
2017-09-14T17:43:27.703Z,2.60
2017-09-14T17:45:55.336Z,3.20
2017-09-14T17:48:24.018Z,3.30
2017-09-14T17:50:52.380Z,3.00
2017-09-14T17:53:19.991Z,3.23
2017-09-14T17:55:47.649Z,2.87
2017-09-14T17:58:15.219Z,3.60
2017-09-14T18:00:42.823Z,2.80
2017-09-14T18:03:10.428Z,3.37
2017-09-14T18:05:38.032Z,3.17
2017-09-14T18:08:05.652Z,3.33
2017-09-14T18:10:34.038Z,3.10
2017-09-14T18:13:01.640Z,3.70
2017-09-14T18:15:29.259Z,2.97
2017-09-14T18:17:56.968Z,2.83
2017-09-14T18:20:24.552Z,3.50
2017-09-14T18:22:52.914Z,3.30
2017-09-14T18:25:20.514Z,3.63
2017-09-14T18:27:48.184Z,3.83
2017-09-14T18:30:15.777Z,3.70
2017-09-14T18:32:43.366Z,3.47
2017-09-14T18:35:11.061Z,4.07
2017-09-14T18:37:38.684Z,3.20
2017-09-14T18:40:06.451Z,3.53
2017-09-14T18:42:34.057Z,3.40
2017-09-14T18:45:01.660Z,3.30
2017-09-14T18:47:29.367Z,4.20
2017-09-14T18:49:57.741Z,3.50
2017-09-14T18:52:25.447Z,4.40
2017-09-14T18:54:53.035Z,4.40
2017-09-14T18:57:20.624Z,4.73
2017-09-14T18:59:49.001Z,4.50
2017-09-14T19:02:17.636Z,4.83
2017-09-14T19:04:45.224Z,4.07
2017-09-14T19:07:12.844Z,4.83
2017-09-14T19:09:40.550Z,5.50
2017-09-14T19:12:08.177Z,5.10
2017-09-14T19:14:35.773Z,4.43
2017-09-14T19:17:03.387Z,4.90
2017-09-14T19:19:31.235Z,5.17
2017-09-14T19:22:00.214Z,5.27
2017-09-14T19:24:27.775Z,4.70
2017-09-14T19:26:56.160Z,4.90
2017-09-14T19:29:24.527Z,5.40
2017-09-14T19:31:53.171Z,5.27
2017-09-14T19:34:20.787Z,5.03
2017-09-14T19:36:49.238Z,5.47
2017-09-14T19:39:17.647Z,5.70
2017-09-14T19:41:45.987Z,5.77
2017-09-14T19:44:13.632Z,5.47
2017-09-14T19:46:41.315Z,6.10
2017-09-14T19:49:08.893Z,6.47
2017-09-14T19:51:36.502Z,6.40
2017-09-14T19:54:04.117Z,6.20
2017-09-14T19:56:31.704Z,6.70
2017-09-14T19:59:00.067Z,6.80
2017-09-14T20:01:28.529Z,6.80
2017-09-14T20:03:56.465Z,7.13
2017-09-14T20:06:24.832Z,6.53
2017-09-14T20:08:52.408Z,6.70
2017-09-14T20:11:20.014Z,7.20
2017-09-14T20:13:47.597Z,6.00
2017-09-14T20:16:15.980Z,7.13
2017-09-14T20:18:44.335Z,6.73
2017-09-14T20:21:11.924Z,8.13
2017-09-14T20:23:40.271Z,8.77
2017-09-14T20:26:07.863Z,8.53
2017-09-14T20:28:35.477Z,9.57
2017-09-14T20:31:03.062Z,8.77
2017-09-14T20:33:30.652Z,9.00
2017-09-14T20:35:59.021Z,8.67
2017-09-14T20:38:29.902Z,8.67
2017-09-14T20:40:57.611Z,8.87
2017-09-14T20:43:25.967Z,9.77
2017-09-14T20:45:53.560Z,10.10
2017-09-14T20:48:21.955Z,10.50
2017-09-14T20:50:49.543Z,10.20
2017-09-14T20:53:17.131Z,11.10
2017-09-14T20:55:44.714Z,12.10
2017-09-14T20:58:12.684Z,10.53
2017-09-14T21:00:40.375Z,11.30
2017-09-14T21:03:07.972Z,11.63
2017-09-14T21:05:35.579Z,10.90
2017-09-14T21:08:03.925Z,11.80
2017-09-14T21:10:31.557Z,10.60
2017-09-14T21:12:59.149Z,11.20
2017-09-14T21:15:26.733Z,11.70
2017-09-14T21:17:54.321Z,10.47
2017-09-14T21:20:21.955Z,10.23
2017-09-14T21:22:49.501Z,10.90
2017-09-14T21:25:17.100Z,10.27
2017-09-14T21:27:45.459Z,9.90
2017-09-14T21:30:13.057Z,10.23
2017-09-14T21:32:40.667Z,9.47
2017-09-14T21:35:08.213Z,10.53
2017-09-14T21:37:35.811Z,9.57
2017-09-14T21:40:04.158Z,9.97
2017-09-14T21:42:31.850Z,11.10
2017-09-14T21:45:00.183Z,10.33
2017-09-14T21:47:27.753Z,10.40
2017-09-14T21:49:56.342Z,10.70
2017-09-14T21:52:23.914Z,11.83
2017-09-14T21:54:51.693Z,12.67
2017-09-14T21:57:19.293Z,11.67
2017-09-14T21:59:46.886Z,12.27
2017-09-14T22:02:14.491Z,12.03
2017-09-14T22:04:42.863Z,12.70
2017-09-14T22:07:11.204Z,12.40
2017-09-14T22:09:38.807Z,11.60
2017-09-14T22:12:07.172Z,12.33
2017-09-14T22:14:34.743Z,12.67
2017-09-14T22:17:03.099Z,11.40
2017-09-14T22:19:30.710Z,12.20
2017-09-14T22:21:58.310Z,12.90
2017-09-14T22:24:25.926Z,11.33
2017-09-14T22:26:53.512Z,11.67
2017-09-14T22:29:21.160Z,11.83
2017-09-14T22:31:48.730Z,13.43
2017-09-14T22:34:16.588Z,12.43
2017-09-14T22:36:44.164Z,13.40
2017-09-14T22:39:11.761Z,11.57
2017-09-14T22:41:39.398Z,12.13
2017-09-14T22:44:06.984Z,12.10
2017-09-14T22:46:34.590Z,12.30
2017-09-14T22:49:02.167Z,14.03
2017-09-14T22:51:29.786Z,13.57
2017-09-14T22:53:57.346Z,13.70
2017-09-14T22:56:25.719Z,11.63
2017-09-14T22:58:53.302Z,12.77
2017-09-14T23:01:21.040Z,13.50
2017-09-14T23:03:48.604Z,14.27
2017-09-14T23:06:16.183Z,14.87
2017-09-14T23:08:44.613Z,13.70
2017-09-14T23:11:12.190Z,14.43
2017-09-14T23:13:39.788Z,14.17
2017-09-14T23:16:08.143Z,13.10
2017-09-14T23:18:35.732Z,14.33
2017-09-14T23:21:04.083Z,13.10
2017-09-14T23:23:31.708Z,13.83
2017-09-14T23:25:59.291Z,12.90
2017-09-14T23:28:26.882Z,11.87
2017-09-14T23:30:55.233Z,11.73
2017-09-14T23:33:22.861Z,11.80
2017-09-14T23:35:50.471Z,12.20
2017-09-14T23:38:18.077Z,12.10
2017-09-14T23:40:45.710Z,12.83
2017-09-14T23:43:14.409Z,11.77
2017-09-14T23:45:42.811Z,11.10
2017-09-14T23:48:10.377Z,11.40
2017-09-14T23:50:38.722Z,11.97
2017-09-14T23:53:07.067Z,11.90
2017-09-14T23:55:35.402Z,11.30
2017-09-14T23:58:02.983Z,11.80
